Aeroporto :
LOGIN :

Iscrizione | Disclaimer

   EN    FR    IT 

 










Sommario :    VFR   VFR Marginale   IFR   IFR Intensivo   IFR Molto Intensivo
Visibilità : 
Base nubi : 
>= 8 km
>= 3000ft
5 / 8 km
1000 / 3000 ft
1500m / 5 km
500 / 1000 ft
800 / 1500m
200 / 500 ft
< 800m
< 200 ft
Simboli :   Temporali  Nebbia  Neve Forte  Precipitazioni Forti  Vento > 20 kt
SIGMETs :   Varie  Temporali  Ghiacco  Turbolenza  Onda orograficha  Ceneri Vulcaniche







- Altitudine del aeroporto : 156 ft
- Codice IATA : OMO


LQMO - Mostar

ULTIMO METAR :
  • 180900Z VRB04KT 9999 FEW050 30/15 Q1013

METARs OBSOLETI :
  • 180800Z VRB03KT 9999 FEW050 29/15 Q1013
  • 180700Z 29004KT 240V330 9999 FEW050 27/16 Q1013

TAF TAF LQMO
Valido dal 18 a 06 ore il 19 a 06 ore UTC


180500Z 1806/1906 03006KT 9999 FEW045 TX32/1811Z TN18/1903Z
PROB30
TEMPO 1811/1816 VRB15KT TSRA FEW030CB SCT040
Nessun NOTAM noto per questo aeroporto.



MetMap, La meteo Aeronautica in un colpo d'occhio ! - Copyright ORBIFLY Dicembre 2007 - Disclaimer

ORBIFLY MET'MAP TEAM :

Programmazione e sviluppo : Alexandra Zaïnal
Concezione e sviluppo : Baudouin d'Aumeries
Co-Programmazione e sviluppo : Marc-Olivier Méhu
Supporto tecnico e logistico : Manuel Goepfert
Aiuto per la traduzione : Arnaldo La Scala

Contatto : metmap@orbifly.com




FONTI E CREDITI :

   NOAA